macs.co.at
Wetterdaten: aktuell Donnerstag, 09.07.2020 18:15
Datum Zeit Temp. A. Feuchte A. Luftdruck Regen Wind Richtung Richtung Taupunkt Windchill Windben Empfang
09.07.2020 18:15 28,4 C 45 % 1014,2 hPa 0,0 l/m 5,1 km/h (1 Bft) O-NO 73 15,3 C 28,4 C 8,0 km/h (2 Bft) 99 %
09.07.2020 17:15 30,2 C 41 % 1014,8 hPa 0,0 l/m 0,6 km/h (0 Bft) SO 136 15,5 C 30,2 C 3,2 km/h (1 Bft) 100 %
09.07.2020 16:15 30,1 C 40 % 1015,3 hPa 0,0 l/m 2,0 km/h (1 Bft) O-SO 112 15,0 C 30,1 C 11,3 km/h (2 Bft) 99 %
09.07.2020 15:15 29,3 C 42 % 1015,7 hPa 0,0 l/m 2,0 km/h (1 Bft) S 186 15,0 C 29,3 C 8,0 km/h (2 Bft) 100 %
09.07.2020 14:15 28,7 C 44 % 1016,2 hPa 0,0 l/m 2,1 km/h (1 Bft) O-SO 108 15,2 C 28,7 C 4,8 km/h (1 Bft) 100 %
09.07.2020 13:15 25,8 C 53 % 1016,9 hPa 0,0 l/m 1,8 km/h (1 Bft) O 86 15,5 C 25,8 C 8,0 km/h (2 Bft) 99 %
09.07.2020 12:15 26,2 C 51 % 1017,6 hPa 0,0 l/m 0,7 km/h (0 Bft) O-SO 111 15,2 C 26,2 C 4,8 km/h (1 Bft) 100 %
09.07.2020 11:15 25,2 C 53 % 1017,6 hPa 0,0 l/m 1,1 km/h (1 Bft) O 98 14,9 C 25,2 C 3,2 km/h (1 Bft) 99 %
09.07.2020 10:15 23,8 C 58 % 1017,9 hPa 0,0 l/m 1,9 km/h (1 Bft) S-SW 209 15,0 C 23,8 C 6,4 km/h (2 Bft) 100 %
09.07.2020 09:15 21,8 C 63 % 1018,0 hPa 0,0 l/m 0,2 km/h (0 Bft) S-SO 159 14,4 C 21,8 C 3,2 km/h (1 Bft) 100 %
09.07.2020 08:15 19,5 C 70 % 1018,0 hPa 0,0 l/m 1,2 km/h (1 Bft) SO 134 13,9 C 19,5 C 3,2 km/h (1 Bft) 100 %
09.07.2020 07:15 18,8 C 71 % 1017,8 hPa 0,0 l/m 0,2 km/h (0 Bft) S-SO 155 13,4 C 18,8 C 1,6 km/h (1 Bft) 100 %
09.07.2020 06:15 17,4 C 76 % 1017,8 hPa 0,0 l/m 0,0 km/h (0 Bft) SO 135 13,1 C 17,4 C 1,6 km/h (1 Bft) 99 %
09.07.2020 05:15 17,4 C 74 % 1018,0 hPa 0,0 l/m 0,0 km/h (0 Bft) SO 131 12,7 C 17,4 C 0,0 km/h (0 Bft) 100 %
09.07.2020 04:15 17,4 C 73 % 1018,0 hPa 0,0 l/m 0,0 km/h (0 Bft) N-NW 348 12,5 C 17,4 C 0,0 km/h (0 Bft) 99 %
09.07.2020 03:15 17,6 C 73 % 1017,9 hPa 0,0 l/m 1,7 km/h (1 Bft) NW 313 12,7 C 17,6 C 4,8 km/h (1 Bft) 100 %
09.07.2020 02:15 17,6 C 71 % 1018,3 hPa 0,0 l/m 2,3 km/h (1 Bft) W 281 12,3 C 17,6 C 4,8 km/h (1 Bft) 100 %
09.07.2020 01:15 17,7 C 71 % 1018,5 hPa 0,0 l/m 1,6 km/h (1 Bft) W-NW 303 12,4 C 17,7 C 4,8 km/h (1 Bft) 98 %
09.07.2020 00:15 17,7 C 72 % 1018,2 hPa 0,0 l/m 1,6 km/h (1 Bft) N-NO 26 12,6 C 17,7 C 4,8 km/h (1 Bft) 100 %
09.07.2020 00:00 17,7 C 71 % 1018,2 hPa 0,0 l/m 3,7 km/h (1 Bft) N 351 12,4 C 17,7 C 6,4 km/h (2 Bft) 100 %
_ Min-Zeit 05:40 15:45 18:10 - 01:25 - - 02:05 05:40 01:25 10:20
Minimum _ 17,1 C 39 % 1014,2 hPa - 0,0 km/h (0 Bft) - - 12,3 C 17,1 C 0,0 km/h (0 Bft) 97 %
_ Max-Zeit 16:00 05:40 00:40 00:00 17:50 - - 14:05 15:45 17:50 00:00
Maximum _ 30,9 C 76 % 1018,5 hPa 0,0 l/m 8,0 km/h
O-NO (2 Bft)
- - 16,3 C 30,8 C 17,7 km/h
O-NO (3 Bft)
100 %
Durchschnitt _ 22,6 C 60 % 1017,3 hPa #0,0 l/m 1,5 km/h (1 Bft) O - 14,0 C 22,6 C 4,9 km/h (1 Bft) 100 %
© Marcus Schindler